»·PEaware :: AAL1943 KRNO-KPHX

AAL1943 :: KRNO-KPHX

FLIGHT INFORMATION

Flight Status: Arrived
Operator:
American Airlines
More flights by this operator :: More flights under this callsign
Pilot: Drew L. (13237)
Aircraft: AIRBUS A319
(A319)
More flights by this aircraft type
Origin: KRNO Reno/Tahoe Intl
United States
Destination: KPHX Phoenix Sky Harbor Intl
United States
More flights between these airports :: More routes between these airports
Route: +ZEFFR6 PESKE LIDAT J92 BLD PRFUM WOTRO BRUSR1
File this flight plan on PilotEdge
Remarks: RMK / SIMBRIEF
Altitude:
(Current/Filed)
37,000ft
Speed:
(Current/Filed)
445kts
Departed: 11-Oct-20 05:06 PM
Arrived: 11-Oct-20 06:21 PM
Distance/Time
Traveled:
522nm/1:14
Distance/Time
To Go:
Arrived

Flight Plot

Page will automatically refresh every two minutes.

Flight plan parsing failed; only flown route is shown


Map Options




Map Legend


Flown Route
Filed Route
Departure Airport
Arrival Airport
Navaid (VOR, NDB)
Fix

Horizontal Profiles

Position Reports

Time Latitude Longitude Heading Altitude Ground
Speed
11-Oct-20 16:23 39.506626 -119.772371 324 4415ft 0kts
11-Oct-20 16:24 39.506626 -119.772371 324 4415ft 0kts
11-Oct-20 16:25 39.506626 -119.772371 324 4415ft 0kts
11-Oct-20 16:26 39.506626 -119.772371 324 4415ft 0kts
11-Oct-20 16:27 39.506626 -119.772371 324 4415ft 0kts
11-Oct-20 16:28 39.506626 -119.772371 324 4415ft 0kts
11-Oct-20 16:29 39.506626 -119.772371 324 4415ft 0kts
11-Oct-20 16:30 39.506626 -119.772371 324 4415ft 0kts
11-Oct-20 16:31 39.506626 -119.772371 324 4415ft 0kts
11-Oct-20 16:32 39.506626 -119.772371 324 4415ft 0kts
11-Oct-20 16:33 39.506626 -119.772371 324 4415ft 0kts
11-Oct-20 16:34 39.506626 -119.772371 324 4415ft 0kts
11-Oct-20 16:35 39.506626 -119.772371 324 4415ft 0kts
11-Oct-20 16:36 39.506626 -119.772371 324 4415ft 0kts
11-Oct-20 16:37 39.506626 -119.772371 324 4415ft 0kts
11-Oct-20 16:38 39.506626 -119.772371 324 4415ft 0kts
11-Oct-20 16:39 39.506626 -119.772371 324 4415ft 0kts
11-Oct-20 16:40 39.506626 -119.772371 324 4415ft 0kts
11-Oct-20 16:41 39.506626 -119.772371 324 4415ft 0kts
11-Oct-20 16:42 39.506626 -119.772371 324 4415ft 0kts
11-Oct-20 16:43 39.506626 -119.772371 324 4414ft 0kts
11-Oct-20 16:44 39.506626 -119.772371 324 4414ft 0kts
11-Oct-20 16:45 39.506626 -119.772371 324 4414ft 0kts
11-Oct-20 16:46 39.506626 -119.772371 324 4414ft 0kts
11-Oct-20 16:47 39.506626 -119.772371 324 4414ft 0kts
11-Oct-20 16:48 39.506626 -119.772371 324 4414ft 0kts
11-Oct-20 16:49 39.506626 -119.772371 324 4414ft 0kts
11-Oct-20 16:50 39.506626 -119.772371 324 4414ft 0kts
11-Oct-20 16:51 39.506626 -119.772371 324 4414ft 0kts
11-Oct-20 16:52 39.506626 -119.772371 324 4414ft 0kts
11-Oct-20 16:53 39.506626 -119.772371 324 4414ft 0kts
11-Oct-20 16:55 39.506626 -119.772371 324 4414ft 0kts
11-Oct-20 16:56 39.506489 -119.772245 334 4414ft 2kts
11-Oct-20 16:57 39.505962 -119.772452 60 4413ft 2kts
11-Oct-20 16:58 39.505903 -119.772774 89 4413ft 0kts
11-Oct-20 16:59 39.505903 -119.772774 89 4413ft 0kts
11-Oct-20 17:00 39.505970 -119.771668 60 4413ft 10kts
11-Oct-20 17:01 39.509221 -119.771485 359 4415ft 22kts
11-Oct-20 17:02 39.513752 -119.770674 89 4419ft 0kts
11-Oct-20 17:03 39.513752 -119.770674 89 4419ft 0kts
11-Oct-20 17:04 39.513752 -119.770674 89 4419ft 0kts
11-Oct-20 17:05 39.513752 -119.770658 89 4419ft 1kts
11-Oct-20 17:06 39.510034 -119.769234 179 4415ft 76kts
11-Oct-20 17:07 39.463348 -119.769714 180 6720ft 194kts
11-Oct-20 17:08 39.402397 -119.769900 181 8498ft 254kts
11-Oct-20 17:09 39.322794 -119.765239 158 10577ft 319kts
11-Oct-20 17:10 39.253998 -119.675466 131 12109ft 392kts
11-Oct-20 17:11 39.175318 -119.561563 132 13916ft 446kts
11-Oct-20 17:12 39.085699 -119.446110 136 16504ft 467kts
11-Oct-20 17:12 39.006373 -119.348014 137 18449ft 484kts
11-Oct-20 17:14 38.891879 -119.206196 135 21101ft 497kts
11-Oct-20 17:14 38.807906 -119.103113 135 22690ft 507kts
11-Oct-20 17:15 38.708562 -118.972666 132 24189ft 521kts
11-Oct-20 17:16 38.609081 -118.837250 134 25959ft 524kts
11-Oct-20 17:17 38.508919 -118.701938 134 27690ft 526kts
11-Oct-20 17:18 38.408438 -118.566737 134 29325ft 527kts
11-Oct-20 17:19 38.307404 -118.431268 134 30834ft 528kts
11-Oct-20 17:20 38.206313 -118.296075 135 32201ft 529kts
11-Oct-20 17:21 38.104635 -118.160554 135 33433ft 530kts
11-Oct-20 17:22 38.002808 -118.025762 135 34558ft 531kts
11-Oct-20 17:23 37.900810 -117.891331 135 35723ft 529kts
11-Oct-20 17:24 37.799101 -117.758444 135 36687ft 526kts
11-Oct-20 17:25 37.697282 -117.625419 135 37159ft 527kts
11-Oct-20 17:26 37.595657 -117.493080 135 37209ft 527kts
11-Oct-20 17:27 37.493693 -117.360712 135 37215ft 527kts
11-Oct-20 17:28 37.384549 -117.238784 148 37222ft 522kts
11-Oct-20 17:29 37.264322 -117.137680 149 37223ft 522kts
11-Oct-20 17:30 37.144201 -117.036367 149 37223ft 523kts
11-Oct-20 17:31 37.024032 -116.935271 147 37224ft 517kts
11-Oct-20 17:32 36.905564 -116.835749 147 37212ft 510kts
11-Oct-20 17:33 36.797766 -116.721803 128 37112ft 511kts
11-Oct-20 17:34 36.725379 -116.571254 113 37053ft 507kts
11-Oct-20 17:35 36.661021 -116.414952 114 37042ft 508kts
11-Oct-20 17:36 36.595907 -116.259504 115 37040ft 508kts
11-Oct-20 17:37 36.530358 -116.104030 115 37040ft 508kts
11-Oct-20 17:38 36.464516 -115.948799 115 37040ft 508kts
11-Oct-20 17:39 36.398492 -115.793878 115 37040ft 508kts
11-Oct-20 17:40 36.332322 -115.639338 115 37040ft 508kts
11-Oct-20 17:41 36.265951 -115.485067 115 37017ft 508kts
11-Oct-20 17:42 36.199279 -115.330731 115 36984ft 508kts
11-Oct-20 17:43 36.132395 -115.176275 115 36979ft 508kts
11-Oct-20 17:44 36.065441 -115.022766 115 36992ft 507kts
11-Oct-20 17:45 35.998335 -114.870168 117 37009ft 506kts
11-Oct-20 17:46 35.922409 -114.724005 120 37006ft 507kts
11-Oct-20 17:47 35.844984 -114.578266 120 37012ft 507kts
11-Oct-20 17:48 35.767968 -114.433128 120 37010ft 507kts
11-Oct-20 17:49 35.690611 -114.287377 121 37002ft 508kts
11-Oct-20 17:50 35.613533 -114.142701 121 37041ft 508kts
11-Oct-20 17:51 35.535988 -113.997899 121 37056ft 508kts
11-Oct-20 17:52 35.458514 -113.854325 121 36185ft 500kts
11-Oct-20 17:53 35.382032 -113.713017 121 35183ft 499kts
11-Oct-20 17:54 35.304877 -113.570892 121 34034ft 502kts
11-Oct-20 17:55 35.227401 -113.428678 121 31345ft 508kts
11-Oct-20 17:56 35.148966 -113.285056 121 29075ft 497kts
11-Oct-20 17:57 35.073653 -113.146994 121 29079ft 485kts
11-Oct-20 17:58 34.995964 -113.006629 121 29116ft 503kts
11-Oct-20 17:59 34.918178 -112.866542 121 29136ft 494kts
11-Oct-20 18:00 34.841823 -112.730091 121 28848ft 488kts
11-Oct-20 18:01 34.764459 -112.591557 121 24977ft 499kts
11-Oct-20 18:02 34.682032 -112.461194 136 23890ft 484kts
11-Oct-20 18:03 34.578460 -112.359731 140 22145ft 474kts
11-Oct-20 18:04 34.478197 -112.261686 140 20272ft 455kts
11-Oct-20 18:05 34.366077 -112.208968 169 18505ft 423kts
11-Oct-20 18:06 34.254542 -112.181133 168 16805ft 398kts
11-Oct-20 18:07 34.149736 -112.154033 168 15233ft 376kts
11-Oct-20 18:08 34.052969 -112.124425 161 14171ft 344kts
11-Oct-20 18:09 33.965045 -112.088320 161 12889ft 325kts
11-Oct-20 18:10 33.881324 -112.054316 162 11450ft 315kts
11-Oct-20 18:11 33.798502 -112.020754 162 9820ft 310kts
11-Oct-20 18:12 33.718501 -111.988406 162 8985ft 300kts
11-Oct-20 18:13 33.642535 -111.957040 162 8067ft 268kts
11-Oct-20 18:14 33.576644 -111.928253 148 7051ft 235kts
11-Oct-20 18:15 33.529190 -111.882213 157 5997ft 216kts
11-Oct-20 18:16 33.474177 -111.886760 190 4570ft 184kts
11-Oct-20 18:17 33.440033 -111.910432 274 3153ft 144kts
11-Oct-20 18:18 33.440743 -111.957832 268 1692ft 134kts
11-Oct-20 18:19 33.440818 -112.001519 269 1132ft 75kts
11-Oct-20 18:20 33.439081 -112.003674 133 1130ft 9kts
11-Oct-20 18:21 33.438441 -112.000331 179 1131ft 11kts

Navigation Log

Ident Type
Flight plan parsing failed, navigation log unavailable